Time;durP1;ratioP1;P1;durP2;ratioP2;P2;SDS_P1;SDS_P2;PMS_P1;PMS_P2;Temp;Humidity;BMP_temperature;BMP_pressure;BME280_temperature;BME280_humidity;BME280_pressure;Samples;Min_cycle;Max_cycle;Signal;HPM_P1;HPM_P2
2022/10/18 00:01:57;;;;;;;5.33;4.60;;;13.40;99.90;;;;;;4864725;29;20240;-87
2022/10/18 00:04:23;;;;;;;6.63;4.63;;;13.40;99.90;;;;;;4864888;29;20237;-87
2022/10/18 00:06:49;;;;;;;10.03;5.00;;;13.40;99.90;;;;;;4864572;29;20188;-87
2022/10/18 00:09:15;;;;;;;10.20;5.37;;;13.30;99.90;;;;;;4867315;29;22190;-87
2022/10/18 00:11:41;;;;;;;10.57;5.10;;;13.20;99.90;;;;;;4883315;29;20243;-87
2022/10/18 00:14:07;;;;;;;7.57;5.03;;;13.10;99.90;;;;;;4867613;29;20220;-86
2022/10/18 00:16:33;;;;;;;8.70;4.73;;;13.10;99.90;;;;;;4867829;29;20188;-86
2022/10/18 00:18:59;;;;;;;5.47;4.57;;;13.20;99.90;;;;;;4883056;29;20274;-87
2022/10/18 00:21:26;;;;;;;8.57;4.93;;;13.20;99.90;;;;;;4882817;29;20190;-87
2022/10/18 00:23:53;;;;;;;7.93;4.67;;;13.20;99.90;;;;;;4883012;29;20184;-87
2022/10/18 00:26:24;;;;;;;10.37;4.53;;;13.20;99.90;;;;;;4883417;29;20172;-87
2022/10/18 00:28:53;;;;;;;11.20;4.97;;;13.20;99.90;;;;;;4867614;29;20204;-86
2022/10/18 00:31:22;;;;;;;6.93;4.70;;;13.20;99.90;;;;;;4868045;29;20291;-86
2022/10/18 00:33:54;;;;;;;6.77;4.50;;;13.20;99.90;;;;;;4879955;29;20203;-87
2022/10/18 00:36:20;;;;;;;6.83;4.50;;;13.10;99.90;;;;;;4880433;29;20192;-86
2022/10/18 00:38:47;;;;;;;7.67;5.00;;;13.10;99.90;;;;;;4864503;29;20212;-87
2022/10/18 00:41:20;;;;;;;9.83;5.00;;;13.10;99.90;;;;;;4864826;29;20180;-86
2022/10/18 00:43:56;;;;;;;10.53;5.47;;;13.20;99.90;;;;;;4864600;29;20225;-86
2022/10/18 00:46:25;;;;;;;8.27;5.17;;;13.20;99.90;;;;;;4880342;29;20246;-87
2022/10/18 00:48:53;;;;;;;11.63;5.30;;;13.20;99.90;;;;;;4864396;29;20192;-87
2022/10/18 00:51:20;;;;;;;7.23;4.90;;;13.20;99.90;;;;;;4864630;29;20593;-87
2022/10/18 00:53:47;;;;;;;8.20;5.03;;;13.20;99.90;;;;;;4864454;29;20244;-87
2022/10/18 00:56:13;;;;;;;5.33;4.40;;;13.20;99.90;;;;;;4864329;29;20194;-86
2022/10/18 00:58:40;;;;;;;8.17;4.87;;;13.20;99.90;;;;;;4864495;29;20246;-86
2022/10/18 01:01:06;;;;;;;8.13;4.70;;;13.20;99.90;;;;;;4864619;29;20240;-87
2022/10/18 01:03:32;;;;;;;7.60;4.23;;;13.20;99.90;;;;;;4879929;29;20196;-87
2022/10/18 01:05:57;;;;;;;7.70;4.63;;;13.20;99.90;;;;;;4864211;29;20184;-86
2022/10/18 01:08:42;;;;;;;7.00;4.80;;;13.20;99.90;;;;;;4874376;29;20714;-86
2022/10/18 01:11:23;;;;;;;8.20;4.23;;;13.20;99.90;;;;;;4861511;29;20241;-86
2022/10/18 01:14:10;;;;;;;5.70;4.50;;;13.20;99.90;;;;;;4861130;29;20176;-86
2022/10/18 01:16:58;;;;;;;6.73;4.73;;;13.10;99.90;;;;;;4860826;29;20218;-86
2022/10/18 01:19:39;;;;;;;6.57;5.00;;;12.90;99.90;;;;;;4860961;29;20248;-87
2022/10/18 01:22:16;;;;;;;7.33;4.90;;;12.80;99.90;;;;;;4843301;29;20751;-86
2022/10/18 01:25:09;;;;;;;8.97;5.07;;;12.90;99.90;;;;;;4843666;29;20176;-86
2022/10/18 01:27:54;;;;;;;7.90;4.80;;;13.00;99.90;;;;;;4841651;29;20198;-87
2022/10/18 01:30:50;;;;;;;8.23;5.00;;;13.00;99.90;;;;;;4842818;29;20196;-87
2022/10/18 01:33:40;;;;;;;8.00;4.90;;;13.00;99.90;;;;;;4863580;29;20212;-87
2022/10/18 01:36:23;;;;;;;6.63;4.63;;;13.20;99.90;;;;;;4863595;29;20176;-86
2022/10/18 01:38:53;;;;;;;8.20;4.53;;;13.20;99.90;;;;;;4863530;29;20284;-87
2022/10/18 01:41:22;;;;;;;7.23;4.70;;;13.30;99.90;;;;;;4863783;29;20215;-86
2022/10/18 01:43:52;;;;;;;7.93;4.50;;;13.30;99.90;;;;;;4863748;29;20713;-87
2022/10/18 01:46:22;;;;;;;8.80;4.40;;;13.30;99.90;;;;;;4863522;29;20192;-87
2022/10/18 01:48:48;;;;;;;6.13;4.23;;;13.40;99.90;;;;;;4879041;29;20180;-87
2022/10/18 01:51:17;;;;;;;5.07;4.30;;;13.40;99.90;;;;;;4863551;29;20197;-87
2022/10/18 01:53:43;;;;;;;12.87;4.43;;;13.40;99.90;;;;;;4863531;29;20187;-87
2022/10/18 01:56:08;;;;;;;5.80;4.20;;;13.40;99.90;;;;;;4863719;29;20180;-86
2022/10/18 01:59:04;;;;;;;4.37;3.83;;;13.40;99.90;;;;;;4863015;29;20242;-86
2022/10/18 02:01:43;;;;;;;5.10;3.60;;;13.40;99.90;;;;;;4863413;29;20180;-87
2022/10/18 02:04:19;;;;;;;10.20;3.87;;;13.50;99.90;;;;;;4878864;29;20188;-87
2022/10/18 02:06:53;;;;;;;7.90;4.37;;;13.50;99.90;;;;;;4862701;29;20183;-87
2022/10/18 02:09:27;;;;;;;8.60;4.13;;;13.40;99.90;;;;;;4860325;29;20200;-86
2022/10/18 02:11:55;;;;;;;5.63;4.10;;;13.50;99.90;;;;;;4859355;29;20203;-87
2022/10/18 02:14:23;;;;;;;5.80;4.57;;;13.50;99.90;;;;;;4860038;29;20185;-87
2022/10/18 02:17:02;;;;;;;6.20;4.50;;;13.50;99.90;;;;;;4860124;29;20185;-87
2022/10/18 02:19:40;;;;;;;6.77;4.33;;;13.40;99.90;;;;;;4859951;29;20287;-86
2022/10/18 02:22:09;;;;;;;6.73;4.40;;;13.40;99.90;;;;;;4859878;29;20200;-86
2022/10/18 02:24:43;;;;;;;6.83;4.20;;;13.50;99.90;;;;;;4858874;29;20192;-87
2022/10/18 02:27:32;;;;;;;5.97;4.00;;;13.50;99.90;;;;;;4860388;29;20181;-87
2022/10/18 02:29:58;;;;;;;6.20;4.30;;;13.50;99.90;;;;;;4862131;29;20180;-87
2022/10/18 02:32:37;;;;;;;6.23;3.67;;;13.50;99.90;;;;;;4862008;29;20355;-86
2022/10/18 02:35:15;;;;;;;7.03;3.87;;;13.50;99.90;;;;;;4877817;29;20725;-87
2022/10/18 02:37:42;;;;;;;9.10;4.10;;;13.50;99.90;;;;;;4862247;29;20222;-87
2022/10/18 02:40:16;;;;;;;9.97;4.20;;;13.50;99.90;;;;;;4859600;29;20199;-87
2022/10/18 02:42:52;;;;;;;5.73;3.80;;;13.40;99.90;;;;;;4859326;29;20670;-87
2022/10/18 02:45:18;;;;;;;5.87;4.30;;;13.50;99.90;;;;;;4859411;29;20209;-87
2022/10/18 02:47:44;;;;;;;8.00;4.27;;;13.50;99.90;;;;;;4859291;29;20642;-87
2022/10/18 02:50:10;;;;;;;7.33;4.10;;;13.40;99.90;;;;;;4859558;29;20184;-87
2022/10/18 02:52:36;;;;;;;8.70;3.97;;;13.40;99.90;;;;;;4861618;29;20196;-86
2022/10/18 02:55:03;;;;;;;6.53;3.77;;;13.40;99.90;;;;;;4878012;29;20176;-87
2022/10/18 02:57:29;;;;;;;5.57;4.27;;;13.40;99.90;;;;;;4861779;29;20208;-86
2022/10/18 02:59:55;;;;;;;6.00;4.00;;;13.30;99.90;;;;;;4862457;29;20221;-87
2022/10/18 03:02:21;;;;;;;6.87;4.13;;;13.30;99.90;;;;;;4877872;29;20196;-87
2022/10/18 03:04:47;;;;;;;8.00;4.40;;;13.30;99.90;;;;;;4844729;29;20184;-87
2022/10/18 03:07:13;;;;;;;7.73;4.30;;;13.30;99.90;;;;;;4859311;29;20264;-86
2022/10/18 03:09:39;;;;;;;8.30;4.90;;;13.30;99.90;;;;;;4859318;29;20248;-87
2022/10/18 03:12:05;;;;;;;7.17;4.33;;;13.30;99.90;;;;;;4859203;29;20251;-86
2022/10/18 03:14:31;;;;;;;6.43;4.23;;;13.30;99.90;;;;;;4859193;29;20196;-87
2022/10/18 03:16:58;;;;;;;7.67;4.10;;;13.30;99.90;;;;;;4858853;29;20192;-87
2022/10/18 03:19:24;;;;;;;8.87;4.57;;;13.40;99.90;;;;;;4859207;29;20180;-87
2022/10/18 03:21:52;;;;;;;9.03;4.40;;;13.40;99.90;;;;;;4859369;29;20212;-86
2022/10/18 03:24:18;;;;;;;5.77;4.03;;;13.40;99.90;;;;;;4873199;29;20176;-87
2022/10/18 03:26:44;;;;;;;8.87;4.00;;;13.40;99.90;;;;;;4861881;29;20184;-87
2022/10/18 03:29:10;;;;;;;5.70;4.03;;;13.40;99.90;;;;;;4849751;29;20283;-87
2022/10/18 03:31:36;;;;;;;7.27;4.27;;;13.40;99.90;;;;;;4858836;29;20257;-86
2022/10/18 03:34:02;;;;;;;8.27;4.27;;;13.40;99.90;;;;;;4858960;29;20177;-87
2022/10/18 03:36:30;;;;;;;8.40;4.50;;;13.30;99.90;;;;;;4843552;29;20718;-87
2022/10/18 03:38:55;;;;;;;9.13;4.37;;;13.30;99.90;;;;;;4858670;29;20224;-86
2022/10/18 03:41:21;;;;;;;8.60;4.83;;;13.30;99.90;;;;;;4858895;29;20181;-88
2022/10/18 03:43:47;;;;;;;7.93;4.40;;;13.20;99.90;;;;;;4856994;29;20201;-86
2022/10/18 03:46:18;;;;;;;8.77;4.93;;;13.20;99.90;;;;;;4873347;29;20195;-87
2022/10/18 03:49:04;;;;;;;8.17;4.27;;;13.20;99.90;;;;;;4858486;29;20184;-87
2022/10/18 03:52:16;;;;;;;5.97;4.00;;;13.10;99.90;;;;;;4858578;29;20184;-87
2022/10/18 03:54:42;;;;;;;7.00;4.50;;;13.10;99.90;;;;;;4858461;29;20191;-88
2022/10/18 03:57:09;;;;;;;8.27;4.40;;;13.00;99.90;;;;;;4858664;29;20212;-87
2022/10/18 03:59:35;;;;;;;8.80;4.03;;;13.00;99.90;;;;;;4870370;29;20219;-87
2022/10/18 04:02:01;;;;;;;9.03;4.30;;;13.00;99.90;;;;;;4843415;29;20235;-87
2022/10/18 04:04:52;;;;;;;10.03;6.67;;;13.00;99.90;;;;;;4857311;29;20256;-87
2022/10/18 04:07:37;;;;;;;11.07;4.30;;;13.10;99.90;;;;;;4858099;29;20191;-87
2022/10/18 04:10:06;;;;;;;6.70;4.10;;;13.00;99.90;;;;;;4862382;29;20203;-87
2022/10/18 04:12:32;;;;;;;6.93;4.30;;;13.00;99.90;;;;;;4862057;29;20209;-87
2022/10/18 04:14:58;;;;;;;10.30;4.50;;;13.00;99.90;;;;;;4862061;29;20236;-87
2022/10/18 04:17:24;;;;;;;7.33;4.90;;;13.00;99.90;;;;;;4877395;29;20231;-87
2022/10/18 04:19:50;;;;;;;7.30;4.53;;;13.00;99.90;;;;;;4862382;29;20188;-87
2022/10/18 04:22:16;;;;;;;10.43;5.40;;;13.00;99.90;;;;;;4862295;29;20208;-87
2022/10/18 04:24:42;;;;;;;5.93;4.67;;;13.00;99.90;;;;;;4861877;29;20177;-87
2022/10/18 04:27:08;;;;;;;7.30;4.30;;;13.00;99.90;;;;;;4866851;29;20271;-87
2022/10/18 04:29:34;;;;;;;5.57;4.17;;;13.00;99.90;;;;;;4869531;29;20260;-86
2022/10/18 04:32:00;;;;;;;7.13;4.10;;;12.90;99.90;;;;;;4861942;29;20223;-86
2022/10/18 04:34:26;;;;;;;7.40;4.23;;;12.90;99.90;;;;;;4861921;29;20237;-87
2022/10/18 04:36:55;;;;;;;8.57;4.17;;;12.90;99.90;;;;;;4861727;29;20263;-87
2022/10/18 04:39:21;;;;;;;4.37;3.80;;;12.80;99.90;;;;;;4877125;29;20240;-87
2022/10/18 04:41:48;;;;;;;4.87;4.27;;;12.80;99.90;;;;;;4861853;29;20257;-86
2022/10/18 04:44:14;;;;;;;6.07;3.87;;;12.80;99.90;;;;;;4861906;29;20192;-86
2022/10/18 04:46:40;;;;;;;5.97;4.20;;;12.80;99.90;;;;;;4861452;29;20193;-86
2022/10/18 04:49:06;;;;;;;6.47;4.10;;;12.80;99.90;;;;;;4861455;29;20200;-86
2022/10/18 04:51:32;;;;;;;7.77;4.60;;;12.80;99.90;;;;;;4861649;29;20185;-86
2022/10/18 04:53:58;;;;;;;8.97;4.60;;;12.90;99.90;;;;;;4861471;29;20200;-86
2022/10/18 04:56:24;;;;;;;8.20;4.53;;;12.90;99.90;;;;;;4861766;29;20188;-86
2022/10/18 04:58:49;;;;;;;6.93;4.33;;;12.90;99.90;;;;;;4861028;29;20204;-86
2022/10/18 05:01:17;;;;;;;5.90;4.47;;;12.90;99.90;;;;;;4861429;29;20157;-87
2022/10/18 05:03:43;;;;;;;7.20;4.53;;;12.90;99.90;;;;;;4861388;29;20188;-86
2022/10/18 05:06:09;;;;;;;9.00;5.00;;;12.80;99.90;;;;;;4861223;29;20227;-86
2022/10/18 05:08:35;;;;;;;4.73;4.20;;;12.80;99.90;;;;;;4876322;29;20185;-85
2022/10/18 05:11:16;;;;;;;6.20;4.73;;;12.80;99.90;;;;;;4870312;29;20283;-86
2022/10/18 05:13:41;;;;;;;8.17;4.50;;;12.80;99.90;;;;;;4861450;29;20192;-86
2022/10/18 05:16:07;;;;;;;5.67;4.67;;;12.80;99.90;;;;;;4861365;29;20276;-87
2022/10/18 05:18:33;;;;;;;9.70;4.93;;;12.70;99.90;;;;;;4845181;29;20261;-87
2022/10/18 05:20:59;;;;;;;6.47;4.57;;;12.60;99.90;;;;;;4861159;29;20267;-87
2022/10/18 05:23:25;;;;;;;9.43;4.50;;;12.60;99.90;;;;;;4860912;29;20299;-87
2022/10/18 05:25:51;;;;;;;6.77;4.70;;;12.60;99.90;;;;;;4861110;29;20287;-86
2022/10/18 05:28:17;;;;;;;5.10;4.17;;;12.70;99.90;;;;;;4862908;29;20230;-87
2022/10/18 05:30:42;;;;;;;6.93;4.53;;;12.60;99.90;;;;;;4864171;29;20188;-87
2022/10/18 05:33:08;;;;;;;10.23;5.40;;;12.60;99.90;;;;;;4863881;29;20216;-87
2022/10/18 05:35:35;;;;;;;8.60;5.00;;;12.60;99.90;;;;;;4863834;29;20199;-88
2022/10/18 05:38:03;;;;;;;6.97;4.23;;;12.60;99.90;;;;;;4863627;29;20218;-87
2022/10/18 05:40:28;;;;;;;4.57;4.13;;;12.50;99.90;;;;;;4864181;29;20193;-81
2022/10/18 05:42:54;;;;;;;6.30;4.83;;;12.50;99.90;;;;;;4881112;29;20203;-87
2022/10/18 05:45:20;;;;;;;9.40;4.37;;;12.50;99.90;;;;;;4851020;29;20203;-87
2022/10/18 05:47:53;;;;;;;6.00;4.30;;;12.50;99.90;;;;;;4860970;29;20345;-86
2022/10/18 05:50:25;;;;;;;5.97;4.73;;;12.50;99.90;;;;;;4860630;29;20188;-87
2022/10/18 05:53:03;;;;;;;5.37;4.27;;;12.50;99.90;;;;;;4874781;29;20222;-87
2022/10/18 05:55:31;;;;;;;8.77;4.40;;;12.50;99.90;;;;;;4859988;29;20260;-87
2022/10/18 05:57:58;;;;;;;6.90;4.30;;;12.40;99.90;;;;;;4858774;29;20230;-87
2022/10/18 06:00:24;;;;;;;9.30;4.33;;;12.40;99.90;;;;;;4845069;29;20177;-86
2022/10/18 06:02:49;;;;;;;7.43;4.20;;;12.40;99.90;;;;;;4844413;29;20204;-86
2022/10/18 06:05:15;;;;;;;6.23;4.60;;;12.40;99.90;;;;;;4844765;29;20187;-86
2022/10/18 06:07:41;;;;;;;10.07;4.67;;;12.40;99.90;;;;;;4844543;29;20195;-86
2022/10/18 06:10:07;;;;;;;4.97;4.10;;;12.40;99.90;;;;;;4860103;29;20194;-86
2022/10/18 06:12:33;;;;;;;6.73;4.53;;;12.40;99.90;;;;;;4844483;29;20211;-86
2022/10/18 06:15:00;;;;;;;6.07;4.40;;;12.40;99.90;;;;;;4844459;29;20192;-86
2022/10/18 06:17:26;;;;;;;7.13;4.67;;;12.40;99.90;;;;;;4860110;29;20215;-86
2022/10/18 06:19:52;;;;;;;4.73;4.10;;;12.50;99.90;;;;;;4844693;29;20177;-86
2022/10/18 06:22:18;;;;;;;5.43;4.10;;;12.50;99.90;;;;;;4844858;29;20212;-86
2022/10/18 06:24:43;;;;;;;4.80;3.90;;;12.60;99.90;;;;;;4844838;29;20184;-86
2022/10/18 06:27:09;;;;;;;6.50;4.43;;;12.70;99.90;;;;;;4844582;29;20184;-86
2022/10/18 06:29:36;;;;;;;5.67;4.07;;;12.70;99.90;;;;;;4845534;29;20474;-88
2022/10/18 06:32:23;;;;;;;6.03;4.77;;;12.80;99.90;;;;;;4846977;29;20303;-86
2022/10/18 06:34:49;;;;;;;7.47;4.57;;;12.90;99.90;;;;;;4874362;29;20177;-86
2022/10/18 06:37:15;;;;;;;10.73;5.30;;;12.90;99.90;;;;;;4843659;29;20207;-86
2022/10/18 06:39:41;;;;;;;8.50;5.00;;;13.00;99.90;;;;;;4859326;29;20181;-86
2022/10/18 06:42:17;;;;;;;7.27;4.70;;;13.10;99.90;;;;;;4859106;29;20207;-86
2022/10/18 06:44:47;;;;;;;6.37;4.53;;;13.20;99.90;;;;;;4858852;29;20181;-87
2022/10/18 06:47:13;;;;;;;8.93;4.53;;;13.30;99.90;;;;;;4867211;29;20187;-87
2022/10/18 06:49:45;;;;;;;8.37;4.83;;;13.30;99.90;;;;;;4859792;29;20173;-87
2022/10/18 06:52:15;;;;;;;5.27;4.57;;;13.40;99.90;;;;;;4870510;29;20210;-87
2022/10/18 06:54:41;;;;;;;7.07;4.20;;;13.50;99.90;;;;;;4859471;29;20252;-86
2022/10/18 06:57:08;;;;;;;10.83;4.77;;;13.50;99.90;;;;;;4858242;29;20192;-86
2022/10/18 06:59:34;;;;;;;8.27;4.90;;;13.50;99.90;;;;;;4843900;29;20177;-86
2022/10/18 07:02:00;;;;;;;7.37;4.27;;;13.60;99.90;;;;;;4843660;29;20296;-86
2022/10/18 07:04:29;;;;;;;6.80;4.33;;;13.60;99.90;;;;;;4859082;29;20255;-86
2022/10/18 07:06:55;;;;;;;7.27;4.30;;;13.70;99.90;;;;;;4843971;29;20242;-86
2022/10/18 07:09:21;;;;;;;6.47;4.63;;;13.70;99.90;;;;;;4844013;29;20264;-85
2022/10/18 07:11:47;;;;;;;6.73;4.67;;;13.70;99.90;;;;;;4859139;29;20241;-86
2022/10/18 07:14:13;;;;;;;7.87;4.60;;;13.70;99.90;;;;;;4843964;29;20233;-86
2022/10/18 07:16:38;;;;;;;5.80;4.43;;;13.80;99.90;;;;;;4844360;29;20205;-86
2022/10/18 07:19:04;;;;;;;11.13;4.80;;;13.80;99.90;;;;;;4843312;29;20275;-86
2022/10/18 07:21:30;;;;;;;8.57;4.57;;;13.80;99.90;;;;;;4843129;29;20189;-86
2022/10/18 07:23:58;;;;;;;5.10;4.30;;;13.90;99.90;;;;;;4843863;29;20256;-86
2022/10/18 07:26:27;;;;;;;5.63;3.77;;;13.90;99.90;;;;;;4859232;29;20197;-86
2022/10/18 07:29:04;;;;;;;8.07;4.27;;;13.90;99.90;;;;;;4858805;29;20192;-86
2022/10/18 07:31:30;;;;;;;5.43;4.23;;;13.90;99.90;;;;;;4858712;29;20187;-86
2022/10/18 07:33:56;;;;;;;5.80;4.03;;;13.90;99.90;;;;;;4859214;29;20272;-86
2022/10/18 07:36:23;;;;;;;9.20;4.67;;;13.90;99.90;;;;;;4859018;29;20274;-86
2022/10/18 07:38:50;;;;;;;9.80;4.57;;;14.00;99.90;;;;;;4858571;29;20224;-86
2022/10/18 07:41:17;;;;;;;8.07;4.53;;;14.00;99.90;;;;;;4872275;29;20188;-86
2022/10/18 07:43:49;;;;;;;5.83;4.30;;;14.10;99.90;;;;;;4862392;29;20209;-86
2022/10/18 07:46:15;;;;;;;12.73;5.70;;;14.10;99.90;;;;;;4862637;29;20184;-86
2022/10/18 07:48:42;;;;;;;7.67;4.50;;;14.10;99.90;;;;;;4862310;29;20185;-86
2022/10/18 07:51:08;;;;;;;6.33;4.67;;;14.20;99.90;;;;;;4874574;29;20176;-86
2022/10/18 07:53:35;;;;;;;6.30;4.67;;;14.30;99.90;;;;;;4872932;29;20306;-86
2022/10/18 07:56:02;;;;;;;6.67;4.83;;;14.30;99.90;;;;;;4866171;29;20273;-87
2022/10/18 07:58:31;;;;;;;10.13;4.57;;;14.40;99.90;;;;;;4865812;29;20340;-86
2022/10/18 08:01:00;;;;;;;9.30;4.70;;;14.50;99.90;;;;;;4881053;29;20664;-86
2022/10/18 08:03:34;;;;;;;7.20;4.43;;;14.50;99.90;;;;;;4864879;29;20218;-86
2022/10/18 08:06:00;;;;;;;4.93;3.90;;;14.50;99.90;;;;;;4865994;29;20184;-87
2022/10/18 08:08:30;;;;;;;13.17;5.03;;;14.60;99.90;;;;;;4866394;29;20181;-87
2022/10/18 08:11:13;;;;;;;8.13;4.53;;;14.70;99.90;;;;;;4862178;29;20220;-87
2022/10/18 08:13:41;;;;;;;7.63;4.33;;;14.90;99.90;;;;;;4846331;29;20212;-87
2022/10/18 08:16:11;;;;;;;4.80;4.20;;;15.10;99.90;;;;;;4862244;29;20189;-87
2022/10/18 08:18:39;;;;;;;7.73;5.17;;;15.30;99.90;;;;;;4862087;29;20212;-87
2022/10/18 08:21:09;;;;;;;8.33;4.43;;;15.50;99.90;;;;;;4865484;29;20204;-87
2022/10/18 08:23:36;;;;;;;8.73;4.37;;;15.60;99.90;;;;;;4864885;29;20263;-86
2022/10/18 08:26:05;;;;;;;8.13;4.57;;;15.60;99.90;;;;;;4864320;29;20212;-86
2022/10/18 08:28:31;;;;;;;5.40;3.77;;;15.70;99.90;;;;;;4864684;29;20232;-86
2022/10/18 08:31:02;;;;;;;4.77;4.30;;;15.80;99.90;;;;;;4876092;29;20195;-86
2022/10/18 08:33:28;;;;;;;5.27;4.33;;;15.90;99.90;;;;;;4865825;29;20316;-87
2022/10/18 08:36:00;;;;;;;4.50;3.70;;;16.00;99.90;;;;;;4873747;29;20191;-86
2022/10/18 08:38:30;;;;;;;7.37;4.17;;;16.10;99.90;;;;;;4874866;29;20275;-87
2022/10/18 08:40:58;;;;;;;7.87;4.20;;;16.30;99.90;;;;;;4861236;29;20200;-88
2022/10/18 08:43:35;;;;;;;5.18;4.00;;;16.40;99.90;;;;;;4861871;29;20208;-88
2022/10/18 08:46:02;;;;;;;4.77;4.03;;;16.60;99.90;;;;;;4846426;29;20254;-88
2022/10/18 08:48:52;;;;;;;6.80;4.65;;;16.80;99.90;;;;;;4861167;29;20443;-88
2022/10/18 08:51:44;;;;;;;6.75;3.67;;;17.00;99.90;;;;;;4861312;29;20219;-88
2022/10/18 08:54:38;;;;;;;5.65;4.80;;;17.10;99.90;;;;;;4860885;29;20199;-88
2022/10/18 08:57:13;;;;;;;6.80;4.32;;;17.30;99.90;;;;;;4845203;29;20248;-88
2022/10/18 08:59:40;;;;;;;6.80;4.35;;;17.40;99.90;;;;;;4861480;29;20279;-88
2022/10/18 09:02:19;;;;;;;7.90;4.30;;;17.50;99.90;;;;;;4861358;29;20201;-88
2022/10/18 09:05:00;;;;;;;8.52;4.05;;;17.50;99.90;;;;;;4861593;29;20181;-88
2022/10/18 09:07:52;;;;;;;4.63;3.70;;;17.60;99.90;;;;;;4861274;29;20176;-88
2022/10/18 09:10:40;;;;;;;6.55;4.50;;;17.60;99.90;;;;;;4861407;29;20181;-88
2022/10/18 09:14:00;;;;;;;9.18;4.13;;;17.60;99.90;;;;;;4877100;29;20349;-87
2022/10/18 09:16:53;;;;;;;6.93;4.47;;;17.60;99.90;;;;;;4845264;29;20209;-88
2022/10/18 09:19:56;;;;;;;6.78;4.65;;;17.60;99.90;;;;;;4867851;29;20215;-89
2022/10/18 09:22:42;;;;;;;4.70;4.30;;;17.60;99.90;;;;;;4846402;29;20204;-90
2022/10/18 09:25:21;;;;;;;4.25;3.80;;;17.70;99.90;;;;;;4861038;29;20195;-88
2022/10/18 09:28:11;;;;;;;5.85;4.00;;;17.70;99.90;;;;;;4861089;29;20219;-88
2022/10/18 09:31:15;;;;;;;7.28;4.25;;;17.80;99.90;;;;;;4861022;29;20223;-88
2022/10/18 09:33:58;;;;;;;4.38;3.92;;;17.90;99.90;;;;;;4860823;29;20210;-89
2022/10/18 09:36:34;;;;;;;7.18;4.30;;;17.90;99.90;;;;;;4861284;29;20290;-89
2022/10/18 09:39:14;;;;;;;5.15;4.38;;;17.90;99.90;;;;;;4845471;29;20222;-88
2022/10/18 09:42:10;;;;;;;5.53;4.35;;;18.00;99.90;;;;;;4845672;29;20204;-89
2022/10/18 09:44:45;;;;;;;6.32;3.92;;;18.00;99.90;;;;;;4865658;29;20209;-90
2022/10/18 09:47:13;;;;;;;5.28;3.72;;;18.00;99.90;;;;;;4878360;29;20192;-89
2022/10/18 09:49:50;;;;;;;4.80;3.90;;;18.10;99.90;;;;;;4846019;29;20185;-88
2022/10/18 09:52:44;;;;;;;5.68;3.50;;;18.20;99.90;;;;;;4875203;29;20250;-88
2022/10/18 09:55:37;;;;;;;5.70;3.58;;;18.20;99.90;;;;;;4854595;29;20188;-89
2022/10/18 09:58:06;;;;;;;5.78;3.78;;;18.30;99.90;;;;;;4842185;29;20242;-88
2022/10/18 10:00:47;;;;;;;5.72;3.50;;;18.50;99.90;;;;;;4842448;29;20181;-88
2022/10/18 10:03:14;;;;;;;6.85;3.45;;;18.70;99.90;;;;;;4842189;29;20204;-88
2022/10/18 10:05:42;;;;;;;4.72;3.20;;;18.80;99.90;;;;;;4842467;29;20189;-89
2022/10/18 10:08:15;;;;;;;4.55;4.10;;;19.00;99.90;;;;;;4841138;29;20193;-89
2022/10/18 10:10:46;;;;;;;4.25;3.30;;;19.20;99.90;;;;;;4843785;29;20189;-88
2022/10/18 10:13:14;;;;;;;5.25;3.70;;;19.30;99.90;;;;;;4860609;29;20205;-88
2022/10/18 10:15:50;;;;;;;5.88;3.60;;;19.50;99.90;;;;;;4860757;29;20277;-88
2022/10/18 10:18:28;;;;;;;3.78;3.25;;;19.60;99.90;;;;;;4845096;29;20208;-88
2022/10/18 10:21:15;;;;;;;6.20;3.38;;;19.70;99.90;;;;;;4844919;29;20177;-88
2022/10/18 10:23:45;;;;;;;7.07;3.80;;;19.80;99.90;;;;;;4844082;29;20208;-88
2022/10/18 10:26:49;;;;;;;5.82;3.35;;;19.90;99.90;;;;;;4860555;29;20212;-88
2022/10/18 10:30:00;;;;;;;4.47;3.45;;;19.90;99.90;;;;;;4851562;29;20215;-88
2022/10/18 10:32:43;;;;;;;5.63;3.53;;;19.90;99.90;;;;;;4870472;29;20224;-88
2022/10/18 10:35:33;;;;;;;8.85;3.40;;;19.90;99.90;;;;;;4859350;29;20275;-88
2022/10/18 10:37:59;;;;;;;5.78;3.17;;;20.00;99.90;;;;;;4842912;29;20209;-88
2022/10/18 10:40:44;;;;;;;7.20;3.50;;;20.10;99.90;;;;;;4859927;29;20188;-87
2022/10/18 10:43:32;;;;;;;7.88;3.85;;;20.30;99.90;;;;;;4859014;29;20299;-87
2022/10/18 10:46:03;;;;;;;7.78;3.47;;;20.50;99.90;;;;;;4859978;29;20204;-87
2022/10/18 10:48:38;;;;;;;7.18;3.10;;;20.70;99.90;;;;;;4859683;29;20192;-87
2022/10/18 10:51:09;;;;;;;7.13;3.50;;;21.00;99.90;;;;;;4859906;29;20255;-86
2022/10/18 10:53:44;;;;;;;5.55;3.10;;;21.20;99.90;;;;;;4856780;29;20215;-87
2022/10/18 10:56:29;;;;;;;5.10;2.88;;;21.40;99.90;;;;;;4855701;29;20187;-87
2022/10/18 10:59:01;;;;;;;4.88;2.72;;;21.60;99.90;;;;;;4859333;29;20220;-87
2022/10/18 11:04:33;;;;;;;4.75;2.63;;;21.90;99.90;;;;;;4874985;29;20626;-87
2022/10/18 11:07:06;;;;;;;7.97;2.80;;;22.00;99.90;;;;;;4859612;29;20195;-86
2022/10/18 11:09:52;;;;;;;4.82;2.50;;;22.10;99.90;;;;;;4875197;29;20279;-87
2022/10/18 11:12:17;;;;;;;3.30;2.35;;;22.20;99.90;;;;;;4859827;29;20246;-86
2022/10/18 11:14:51;;;;;;;4.80;2.33;;;22.30;99.90;;;;;;4859475;29;20243;-87
2022/10/18 11:17:26;;;;;;;6.10;2.85;;;22.40;99.90;;;;;;4874272;29;20172;-87
2022/10/18 11:20:10;;;;;;;3.90;2.63;;;22.50;99.90;;;;;;4859041;29;20180;-87
2022/10/18 11:22:57;;;;;;;5.82;2.63;;;22.60;99.90;;;;;;4862048;29;20206;-87
2022/10/18 11:25:33;;;;;;;2.75;2.35;;;22.60;99.90;;;;;;4862105;29;20187;-87
2022/10/18 11:28:23;;;;;;;7.70;2.75;;;22.70;99.90;;;;;;4852338;29;20273;-87
2022/10/18 11:30:58;;;;;;;5.15;2.47;;;22.80;99.90;;;;;;4858532;29;20256;-87
2022/10/18 11:33:40;;;;;;;4.95;2.13;;;22.80;99.90;;;;;;4859095;29;20238;-87
2022/10/18 11:36:51;;;;;;;5.15;2.20;;;22.90;99.90;;;;;;4859166;29;20195;-87
2022/10/18 11:39:17;;;;;;;3.75;2.03;;;22.90;99.90;;;;;;4850476;29;20239;-87
2022/10/18 11:41:49;;;;;;;7.57;2.10;;;23.00;99.90;;;;;;4858577;29;20204;-87
2022/10/18 11:44:30;;;;;;;3.72;2.03;;;23.10;99.90;;;;;;4858770;29;20184;-87
2022/10/18 11:47:22;;;;;;;4.18;1.85;;;23.10;99.90;;;;;;4858532;29;20268;-87
2022/10/18 11:50:13;;;;;;;2.30;1.90;;;22.90;99.90;;;;;;4855646;29;20234;-87
2022/10/18 11:52:51;;;;;;;3.97;2.30;;;22.70;99.90;;;;;;4858601;29;20208;-87
2022/10/18 11:55:42;;;;;;;2.97;1.75;;;22.60;99.90;;;;;;4858749;29;20177;-87
2022/10/18 11:58:50;;;;;;;4.65;2.17;;;22.50;99.90;;;;;;4857883;29;20209;-87
2022/10/18 12:01:26;;;;;;;3.83;2.00;;;22.50;99.90;;;;;;4858591;29;20256;-87
2022/10/18 12:04:06;;;;;;;3.05;2.00;;;22.60;99.90;;;;;;4858728;29;20195;-80
2022/10/18 12:06:39;;;;;;;6.47;2.03;;;22.60;99.90;;;;;;4862656;29;20176;-80
2022/10/18 12:09:28;;;;;;;3.90;2.20;;;22.50;99.90;;;;;;4854563;29;20208;-80
2022/10/18 12:12:08;;;;;;;3.55;2.20;;;22.40;99.90;;;;;;4846221;29;20309;-81
2022/10/18 12:14:48;;;;;;;6.75;1.80;;;22.30;99.90;;;;;;4854197;29;20180;-89
2022/10/18 12:17:24;;;;;;;2.78;1.50;;;22.20;99.90;;;;;;4858960;29;20181;-88
2022/10/18 12:20:03;;;;;;;1.60;1.30;;;22.10;99.90;;;;;;4858925;29;20177;-87
2022/10/18 12:22:35;;;;;;;2.55;1.42;;;22.00;99.90;;;;;;4859221;29;20207;-87
2022/10/18 12:25:03;;;;;;;3.78;1.60;;;21.90;99.90;;;;;;4858665;29;20192;-87
2022/10/18 12:28:07;;;;;;;2.85;1.30;;;21.80;99.90;;;;;;4862459;29;20236;-87
2022/10/18 12:31:17;;;;;;;2.65;1.60;;;21.90;99.90;;;;;;4851874;29;20193;-87
2022/10/18 12:33:49;;;;;;;3.17;1.27;;;22.00;99.90;;;;;;4867072;29;20193;-87
2022/10/18 12:36:29;;;;;;;2.72;1.50;;;22.20;99.90;;;;;;4862790;29;20173;-87
2022/10/18 12:39:03;;;;;;;3.22;1.40;;;22.50;99.90;;;;;;4848748;29;20220;-87
2022/10/18 12:41:34;;;;;;;2.65;1.50;;;22.80;99.90;;;;;;4877239;29;20255;-87
2022/10/18 12:44:03;;;;;;;3.42;1.40;;;23.00;99.90;;;;;;4863354;29;20196;-87
2022/10/18 12:46:54;;;;;;;2.45;1.30;;;23.30;99.90;;;;;;4846413;29;20184;-87
2022/10/18 12:49:54;;;;;;;1.83;1.40;;;23.50;99.90;;;;;;4862170;29;20201;-87
2022/10/18 12:52:29;;;;;;;3.92;1.50;;;23.90;99.90;;;;;;4856041;29;20240;-87
2022/10/18 12:55:12;;;;;;;1.63;1.42;;;24.10;99.90;;;;;;4862174;29;20200;-87
2022/10/18 12:58:26;;;;;;;2.33;1.23;;;24.10;99.90;;;;;;4861304;29;20184;-87
2022/10/18 13:01:10;;;;;;;1.83;1.30;;;24.10;99.90;;;;;;4843092;29;20184;-87
2022/10/18 13:03:51;;;;;;;2.50;1.40;;;23.80;99.90;;;;;;4863084;29;20203;-87
2022/10/18 13:06:18;;;;;;;1.85;1.60;;;23.60;99.90;;;;;;4865042;29;20236;-77
2022/10/18 13:08:46;;;;;;;2.50;1.50;;;23.60;99.90;;;;;;4870699;29;20200;-87
2022/10/18 13:11:29;;;;;;;2.20;1.27;;;23.40;99.90;;;;;;4864471;29;20230;-81
2022/10/18 13:14:13;;;;;;;5.03;1.58;;;23.40;99.90;;;;;;4876071;29;20263;-81
2022/10/18 13:16:49;;;;;;;5.70;1.60;;;23.20;99.90;;;;;;4861676;29;20251;-88
2022/10/18 13:19:18;;;;;;;3.20;1.83;;;23.00;99.90;;;;;;4862127;29;20208;-87
2022/10/18 13:22:27;;;;;;;3.22;1.45;;;22.90;99.90;;;;;;4862761;29;20209;-88